createdAt,value
2018-08-18T00:02:15.156Z,76.24
2018-08-18T00:07:20.005Z,76.39
2018-08-18T00:09:49.091Z,75.88
2018-08-18T00:12:18.141Z,76.02
2018-08-18T00:14:47.193Z,75.84
2018-08-18T00:17:16.238Z,75.98
2018-08-18T00:19:45.697Z,75.76
2018-08-18T00:22:14.752Z,75.37
2018-08-18T00:24:43.781Z,75.42
2018-08-18T00:27:13.031Z,75.75
2018-08-18T00:29:42.102Z,75.71
2018-08-18T00:32:11.158Z,76.03
2018-08-18T00:34:40.308Z,75.94
2018-08-18T00:37:10.258Z,75.44
2018-08-18T00:39:40.233Z,75.77
2018-08-18T00:42:09.625Z,75.38
2018-08-18T00:44:38.682Z,76.01
2018-08-18T00:47:07.744Z,76.19
2018-08-18T00:49:40.300Z,75.99
2018-08-18T00:54:45.077Z,75.36
2018-08-18T00:57:14.120Z,75.34
2018-08-18T00:59:43.176Z,75.67
2018-08-18T01:02:12.334Z,75.67
2018-08-18T01:04:41.375Z,75.84
2018-08-18T01:07:10.453Z,76.28
2018-08-18T01:09:39.522Z,76.42
2018-08-18T01:12:08.781Z,76.31
2018-08-18T01:14:37.729Z,76.67
2018-08-18T01:17:06.787Z,77.77
2018-08-18T01:19:35.838Z,77.76
2018-08-18T01:24:40.726Z,77.71
2018-08-18T01:27:10.172Z,78.37
2018-08-18T01:29:39.135Z,78.27
2018-08-18T01:34:44.654Z,79.61
2018-08-18T01:37:14.375Z,79.51
2018-08-18T01:39:43.424Z,79.44
2018-08-18T01:42:12.492Z,80.33
2018-08-18T01:44:42.814Z,80.97
2018-08-18T01:49:47.691Z,81.00
2018-08-18T01:52:16.755Z,81.08
2018-08-18T01:54:45.803Z,80.33
2018-08-18T01:57:15.039Z,80.79
2018-08-18T01:59:44.077Z,81.31
2018-08-18T02:04:48.932Z,81.47
2018-08-18T02:09:53.833Z,82.60
2018-08-18T02:14:08.970Z,82.89
2018-08-18T02:19:14.134Z,82.61
2018-08-18T02:21:44.155Z,82.49
2018-08-18T02:24:13.205Z,82.32
2018-08-18T02:26:42.265Z,82.84
2018-08-18T02:29:11.326Z,82.93
2018-08-18T02:31:40.365Z,83.54
2018-08-18T02:34:10.369Z,83.70
2018-08-18T02:39:15.153Z,83.73
2018-08-18T02:41:44.211Z,84.42
2018-08-18T02:44:13.249Z,84.40
2018-08-18T02:49:18.095Z,84.92
2018-08-18T02:51:47.339Z,84.97
2018-08-18T02:54:16.395Z,84.88
2018-08-18T02:56:45.645Z,85.00
2018-08-18T02:59:14.791Z,85.13
2018-08-18T03:01:47.105Z,85.36
2018-08-18T03:06:52.334Z,85.03
2018-08-18T03:09:21.417Z,84.91
2018-08-18T03:11:50.457Z,84.88
2018-08-18T03:14:19.502Z,84.99
2018-08-18T03:19:24.559Z,84.76
2018-08-18T03:21:53.590Z,85.05
2018-08-18T03:26:58.435Z,85.44
2018-08-18T03:32:03.181Z,85.57
2018-08-18T03:34:32.235Z,85.77
2018-08-18T03:37:04.589Z,86.28
2018-08-18T03:39:33.669Z,85.93
2018-08-18T03:42:02.747Z,85.81
2018-08-18T03:44:32.348Z,85.78
2018-08-18T03:47:02.349Z,86.39
2018-08-18T03:52:07.128Z,86.64
2018-08-18T03:54:36.184Z,87.55
2018-08-18T03:57:05.240Z,87.72
2018-08-18T03:59:34.284Z,88.53
2018-08-18T04:02:03.388Z,88.06
2018-08-18T04:04:32.380Z,88.37
2018-08-18T04:07:02.657Z,87.62
2018-08-18T04:09:31.714Z,88.00
2018-08-18T04:12:00.763Z,87.74
2018-08-18T04:17:05.649Z,88.22
2018-08-18T04:19:34.711Z,88.54
2018-08-18T04:22:03.951Z,88.47
2018-08-18T04:24:33.087Z,88.11
2018-08-18T04:27:02.142Z,87.82
2018-08-18T04:29:31.205Z,88.30
2018-08-18T04:32:00.370Z,87.93
2018-08-18T04:34:29.502Z,88.69
2018-08-18T04:36:58.553Z,88.47
2018-08-18T04:39:27.604Z,89.20
2018-08-18T04:44:32.461Z,88.48
2018-08-18T04:47:14.349Z,88.39
2018-08-18T04:49:43.981Z,88.92
2018-08-18T04:52:13.035Z,88.28
2018-08-18T04:54:43.360Z,88.22
2018-08-18T04:57:12.401Z,88.29
2018-08-18T04:59:41.470Z,88.42
2018-08-18T05:02:10.521Z,88.53
2018-08-18T05:04:39.581Z,88.27
2018-08-18T05:09:44.444Z,86.89
2018-08-18T05:12:13.514Z,86.43
2018-08-18T05:14:42.781Z,86.44
2018-08-18T05:17:11.832Z,86.42
2018-08-18T05:24:52.657Z,84.56
2018-08-18T05:27:21.736Z,83.65
2018-08-18T05:29:50.773Z,83.30
2018-08-18T05:32:20.119Z,83.36
2018-08-18T05:37:24.894Z,82.60
2018-08-18T05:45:05.515Z,82.02
2018-08-18T05:47:34.644Z,82.03
2018-08-18T05:50:03.679Z,82.48
2018-08-18T05:55:08.994Z,81.54
2018-08-18T05:57:49.985Z,81.95
2018-08-18T06:05:45.039Z,78.60
2018-08-18T06:08:15.706Z,77.21
2018-08-18T06:10:45.696Z,77.81
2018-08-18T06:13:14.745Z,77.85
2018-08-18T06:15:43.813Z,76.76
2018-08-18T06:20:48.667Z,75.04
2018-08-18T06:23:17.777Z,74.19
2018-08-18T06:28:23.095Z,73.42
2018-08-18T06:30:52.146Z,73.12
2018-08-18T06:33:21.230Z,72.50
2018-08-18T06:35:50.388Z,72.54
2018-08-18T06:40:55.498Z,72.70
2018-08-18T06:43:24.577Z,73.34
2018-08-18T06:48:29.442Z,70.63
2018-08-18T06:50:58.484Z,71.93
2018-08-18T06:56:03.318Z,71.07
2018-08-18T06:58:32.594Z,69.66
2018-08-18T07:01:01.671Z,69.85
2018-08-18T07:03:30.719Z,70.82
2018-08-18T07:05:59.890Z,73.12
2018-08-18T07:08:28.870Z,73.02
2018-08-18T07:10:58.918Z,71.77
2018-08-18T07:13:27.992Z,69.52
2018-08-18T07:15:57.069Z,69.58
2018-08-18T07:21:01.881Z,68.38
2018-08-18T07:23:30.961Z,69.44
2018-08-18T07:26:01.999Z,71.30
2018-08-18T07:28:31.089Z,73.36
2018-08-18T07:31:02.034Z,74.40
2018-08-18T07:36:06.904Z,73.59
2018-08-18T07:38:35.998Z,74.61
2018-08-18T07:41:05.044Z,76.43
2018-08-18T07:46:10.870Z,74.93
2018-08-18T07:48:39.924Z,75.80
2018-08-18T07:53:44.721Z,76.11
2018-08-18T07:56:13.825Z,75.98
2018-08-18T07:58:52.135Z,76.83
2018-08-18T08:01:33.468Z,73.91
2018-08-18T08:04:02.878Z,75.56
2018-08-18T08:06:31.937Z,72.37
2018-08-18T08:09:01.003Z,70.26
2018-08-18T08:14:05.885Z,69.49
2018-08-18T08:16:34.967Z,70.29
2018-08-18T08:19:04.033Z,71.59
2018-08-18T08:21:33.115Z,70.34
2018-08-18T08:24:03.161Z,71.06
2018-08-18T08:26:32.218Z,70.33
2018-08-18T08:29:01.265Z,72.99
2018-08-18T08:31:30.351Z,73.84
2018-08-18T08:34:02.658Z,73.78
2018-08-18T08:36:31.944Z,72.29
2018-08-18T08:44:13.804Z,70.95
2018-08-18T08:46:42.869Z,72.79
2018-08-18T08:51:47.738Z,72.01
2018-08-18T08:54:16.816Z,69.01
2018-08-18T08:59:21.699Z,66.62
2018-08-18T09:01:52.920Z,69.01
2018-08-18T09:06:57.908Z,67.54
2018-08-18T09:09:26.965Z,65.90
2018-08-18T09:14:31.863Z,61.95
2018-08-18T09:17:00.916Z,59.70
2018-08-18T09:19:30.941Z,59.73
2018-08-18T09:24:35.819Z,57.83
2018-08-18T09:29:40.609Z,56.27
2018-08-18T09:32:09.682Z,58.44
2018-08-18T09:34:38.746Z,58.74
2018-08-18T09:37:07.811Z,60.22
2018-08-18T09:39:36.862Z,62.76
2018-08-18T09:42:05.922Z,61.97
2018-08-18T09:44:34.989Z,63.18
2018-08-18T09:47:04.046Z,63.11
2018-08-18T09:49:33.117Z,61.15
2018-08-18T09:52:02.185Z,62.21
2018-08-18T09:54:31.226Z,63.33
2018-08-18T09:59:36.171Z,60.21
2018-08-18T10:02:05.386Z,61.93
2018-08-18T10:04:34.434Z,61.14
2018-08-18T10:07:03.521Z,60.83
2018-08-18T10:09:32.735Z,61.39
2018-08-18T10:12:01.823Z,58.34
2018-08-18T10:14:31.822Z,58.36
2018-08-18T10:17:01.838Z,59.29
2018-08-18T10:19:30.897Z,58.40
2018-08-18T10:21:59.987Z,53.11
2018-08-18T10:24:29.237Z,53.14
2018-08-18T10:26:58.297Z,51.16
2018-08-18T10:29:27.354Z,44.27
2018-08-18T10:31:57.349Z,43.35
2018-08-18T10:34:27.377Z,42.25
2018-08-18T10:36:56.425Z,40.80
2018-08-18T10:39:25.479Z,38.49
2018-08-18T10:44:30.773Z,39.80
2018-08-18T10:46:59.821Z,37.96
2018-08-18T10:49:29.012Z,38.07
2018-08-18T10:54:36.956Z,35.45
2018-08-18T10:57:06.014Z,33.40
2018-08-18T10:59:35.062Z,33.93
2018-08-18T11:02:04.114Z,34.25
2018-08-18T11:04:33.160Z,29.80
2018-08-18T11:09:39.029Z,30.73
2018-08-18T11:14:43.904Z,36.51
2018-08-18T11:17:13.366Z,30.82
2018-08-18T11:19:42.385Z,28.86
2018-08-18T11:22:15.931Z,27.70
2018-08-18T11:27:20.980Z,27.99
2018-08-18T11:29:50.039Z,25.65
2018-08-18T11:32:19.100Z,28.48
2018-08-18T11:34:48.324Z,28.98
2018-08-18T11:37:17.350Z,30.11
2018-08-18T11:39:46.433Z,27.73
2018-08-18T11:42:15.589Z,28.59
2018-08-18T11:44:44.654Z,26.99
2018-08-18T11:47:13.697Z,27.14
2018-08-18T11:49:42.877Z,30.02
2018-08-18T11:52:12.000Z,29.28
2018-08-18T11:54:41.029Z,26.72
2018-08-18T11:57:10.165Z,25.44
2018-08-18T12:02:14.950Z,26.12
2018-08-18T12:04:44.004Z,25.14
2018-08-18T12:07:13.044Z,26.05
2018-08-18T12:09:42.089Z,30.61
2018-08-18T12:12:11.149Z,27.29
2018-08-18T12:14:40.195Z,25.60
2018-08-18T12:17:10.203Z,24.14
2018-08-18T12:22:15.093Z,24.71
2018-08-18T12:24:44.159Z,24.50
2018-08-18T12:27:13.212Z,25.39
2018-08-18T12:29:42.310Z,24.83
2018-08-18T12:32:11.318Z,25.12
2018-08-18T12:34:40.363Z,24.54
2018-08-18T12:37:09.425Z,25.66
2018-08-18T12:39:39.461Z,26.55
2018-08-18T12:42:08.509Z,23.42
2018-08-18T12:44:37.558Z,24.17
2018-08-18T12:47:06.616Z,24.15
2018-08-18T12:49:35.752Z,24.91
2018-08-18T12:52:04.750Z,27.99
2018-08-18T12:54:33.806Z,28.16
2018-08-18T12:57:02.866Z,25.37
2018-08-18T12:59:31.961Z,25.75
2018-08-18T13:02:01.967Z,27.76
2018-08-18T13:04:31.134Z,23.44
2018-08-18T13:07:00.079Z,26.35
2018-08-18T13:09:31.127Z,27.28
2018-08-18T13:12:00.162Z,27.35
2018-08-18T13:14:29.351Z,25.80
2018-08-18T13:16:58.337Z,32.92
2018-08-18T13:19:27.381Z,33.00
2018-08-18T13:21:56.440Z,26.85
2018-08-18T13:24:25.567Z,25.42
2018-08-18T13:26:54.603Z,23.76
2018-08-18T13:29:23.794Z,23.29
2018-08-18T13:31:52.837Z,25.92
2018-08-18T13:34:21.890Z,26.80
2018-08-18T13:36:50.958Z,24.21
2018-08-18T13:39:20.008Z,25.84
2018-08-18T13:41:49.057Z,25.27
2018-08-18T13:44:18.163Z,23.31
2018-08-18T13:46:47.401Z,22.22
2018-08-18T13:49:16.255Z,25.80
2018-08-18T13:51:45.297Z,28.35
2018-08-18T13:54:18.912Z,29.45
2018-08-18T13:56:52.351Z,29.76
2018-08-18T13:59:27.561Z,27.52
2018-08-18T14:02:01.423Z,27.81
2018-08-18T14:04:35.311Z,24.80
2018-08-18T14:09:40.034Z,23.91
2018-08-18T14:12:09.101Z,22.71
2018-08-18T14:14:38.153Z,26.18
2018-08-18T14:17:08.234Z,23.85
2018-08-18T14:22:12.993Z,21.77
2018-08-18T14:24:42.156Z,21.35
2018-08-18T14:27:11.197Z,21.02
2018-08-18T14:29:40.266Z,23.74
2018-08-18T14:32:09.321Z,26.28
2018-08-18T14:34:38.390Z,23.22
2018-08-18T14:37:07.451Z,22.83
2018-08-18T14:39:36.525Z,24.51
2018-08-18T14:44:41.499Z,22.96
2018-08-18T14:47:12.466Z,21.31
2018-08-18T14:49:41.642Z,24.00
2018-08-18T14:52:10.777Z,22.26
2018-08-18T14:57:15.652Z,20.37
2018-08-18T14:59:44.720Z,20.32
2018-08-18T15:04:49.605Z,21.24
2018-08-18T15:07:19.749Z,22.08
2018-08-18T15:09:48.801Z,21.98
2018-08-18T15:14:53.671Z,22.13
2018-08-18T15:17:22.717Z,21.36
2018-08-18T15:19:51.774Z,23.21
2018-08-18T15:24:56.517Z,21.70
2018-08-18T15:27:26.501Z,21.45
2018-08-18T15:29:55.579Z,22.94
2018-08-18T15:32:24.622Z,22.29
2018-08-18T15:34:53.693Z,21.77
2018-08-18T15:37:23.802Z,22.19
2018-08-18T15:39:52.850Z,21.59
2018-08-18T15:42:21.915Z,22.16
2018-08-18T15:44:51.113Z,24.05
2018-08-18T15:47:20.174Z,23.42
2018-08-18T15:49:49.214Z,23.17
2018-08-18T15:52:18.344Z,23.26
2018-08-18T15:57:23.216Z,23.77
2018-08-18T15:59:52.278Z,24.56
2018-08-18T16:02:21.317Z,25.20
2018-08-18T16:07:28.275Z,25.67
2018-08-18T16:09:57.323Z,26.18
2018-08-18T16:15:02.273Z,25.80
2018-08-18T16:17:31.422Z,27.28
2018-08-18T16:20:00.739Z,28.67
2018-08-18T16:22:29.777Z,29.92
2018-08-18T16:27:34.701Z,37.11
2018-08-18T16:30:03.778Z,36.51
2018-08-18T16:32:33.159Z,36.39
2018-08-18T16:35:02.217Z,37.50
2018-08-18T16:40:07.130Z,37.41
2018-08-18T16:42:36.267Z,37.64
2018-08-18T16:45:05.284Z,38.99
2018-08-18T16:47:34.333Z,40.53
2018-08-18T16:50:04.348Z,40.18
2018-08-18T16:52:34.389Z,38.87
2018-08-18T16:55:03.429Z,38.46
2018-08-18T16:57:32.525Z,42.89
2018-08-18T17:00:02.495Z,43.61
2018-08-18T17:02:31.558Z,40.76
2018-08-18T17:05:01.708Z,43.54
2018-08-18T17:07:30.743Z,42.64
2018-08-18T17:09:59.803Z,43.91
2018-08-18T17:15:04.738Z,43.91
2018-08-18T17:17:33.880Z,44.79
2018-08-18T17:20:03.061Z,43.68
2018-08-18T17:25:07.948Z,48.83
2018-08-18T17:27:37.057Z,46.95
2018-08-18T17:30:06.160Z,46.66
2018-08-18T17:32:35.301Z,48.33
2018-08-18T17:35:04.329Z,47.98
2018-08-18T17:37:34.351Z,48.21
2018-08-18T17:40:04.387Z,48.50
2018-08-18T17:42:34.910Z,50.06
2018-08-18T17:52:51.281Z,50.23
2018-08-18T17:55:20.425Z,52.00
2018-08-18T17:57:49.511Z,55.48
2018-08-18T18:02:54.328Z,58.31
2018-08-18T18:05:24.324Z,56.52
2018-08-18T18:10:29.197Z,60.02
2018-08-18T18:12:59.308Z,59.31
2018-08-18T18:15:29.325Z,63.09
2018-08-18T18:17:58.376Z,63.79
2018-08-18T18:20:27.521Z,61.60
2018-08-18T18:30:44.213Z,65.70
2018-08-18T18:33:13.284Z,68.76
2018-08-18T18:38:18.168Z,69.04
2018-08-18T18:40:47.225Z,67.01
2018-08-18T18:43:17.246Z,69.70
2018-08-18T18:45:46.364Z,71.64
2018-08-18T18:48:15.366Z,67.58
2018-08-18T18:53:41.660Z,70.86
2018-08-18T18:58:46.479Z,70.93
2018-08-18T19:01:15.597Z,71.53
2018-08-18T19:03:45.824Z,73.08
2018-08-18T19:08:50.641Z,71.47
2018-08-18T19:11:19.679Z,68.25
2018-08-18T19:16:24.517Z,67.53
2018-08-18T19:18:53.551Z,71.63
2018-08-18T19:21:22.604Z,70.02
2018-08-18T19:23:51.657Z,77.86
2018-08-18T19:26:20.717Z,77.82
2018-08-18T19:28:49.786Z,77.54
2018-08-18T19:31:18.871Z,78.03
2018-08-18T19:33:47.922Z,78.58
2018-08-18T19:36:16.973Z,78.51
2018-08-18T19:38:46.030Z,76.97
2018-08-18T19:41:15.100Z,74.01
2018-08-18T19:43:44.147Z,78.17
2018-08-18T19:46:13.210Z,78.00
2018-08-18T19:48:42.267Z,76.17
2018-08-18T19:53:47.139Z,77.33
2018-08-18T19:56:16.209Z,75.03
2018-08-18T19:58:45.414Z,75.95
2018-08-18T20:01:15.417Z,78.23
2018-08-18T20:03:44.514Z,73.69
2018-08-18T20:08:49.367Z,77.92
2018-08-18T20:11:18.467Z,79.64
2018-08-18T20:13:47.511Z,80.18
2018-08-18T20:16:17.345Z,80.90
2018-08-18T20:18:46.419Z,80.74
2018-08-18T20:21:15.462Z,80.82
2018-08-18T20:23:44.515Z,83.62
2018-08-18T20:26:13.580Z,82.45
2018-08-18T20:28:42.649Z,77.76
2018-08-18T20:31:11.702Z,79.14
2018-08-18T20:33:40.761Z,78.66
2018-08-18T20:38:45.552Z,81.45
2018-08-18T20:41:14.609Z,80.46
2018-08-18T20:46:19.414Z,82.49
2018-08-18T20:48:48.523Z,83.33
2018-08-18T20:51:17.547Z,80.33
2018-08-18T20:53:46.691Z,84.38
2018-08-18T20:56:15.731Z,80.11
2018-08-18T20:58:44.785Z,83.58
2018-08-18T21:03:49.653Z,84.20
2018-08-18T21:06:19.718Z,85.44
2018-08-18T21:08:48.761Z,85.60
2018-08-18T21:11:18.768Z,86.91
2018-08-18T21:13:47.814Z,86.64
2018-08-18T21:16:16.901Z,86.83
2018-08-18T21:18:46.913Z,83.97
2018-08-18T21:23:51.773Z,84.97
2018-08-18T21:26:20.879Z,82.20
2018-08-18T21:28:49.892Z,87.42
2018-08-18T21:31:19.022Z,87.77
2018-08-18T21:36:24.091Z,83.63
2018-08-18T21:38:53.101Z,86.71
2018-08-18T21:41:22.195Z,83.95
2018-08-18T21:46:26.971Z,85.44
2018-08-18T21:48:56.115Z,84.89
2018-08-18T21:51:25.174Z,87.21
2018-08-18T21:53:54.240Z,86.33
2018-08-18T21:56:23.309Z,86.45
2018-08-18T21:58:53.358Z,87.83
2018-08-18T22:01:22.418Z,87.82
2018-08-18T22:03:51.484Z,87.59
2018-08-18T22:06:20.565Z,87.21
2018-08-18T22:08:49.640Z,86.60
2018-08-18T22:11:18.673Z,87.92
2018-08-18T22:16:23.538Z,86.36
2018-08-18T22:18:53.558Z,87.87
2018-08-18T22:21:22.729Z,86.94
2018-08-18T22:23:51.782Z,87.32
2018-08-18T22:26:22.778Z,88.04
2018-08-18T22:28:51.824Z,87.86
2018-08-18T22:31:20.910Z,87.75
2018-08-18T22:33:49.966Z,88.38
2018-08-18T22:36:19.030Z,86.21
2018-08-18T22:38:48.084Z,86.62
2018-08-18T22:43:52.833Z,87.65
2018-08-18T22:48:58.693Z,87.38
2018-08-18T22:51:28.796Z,88.91
2018-08-18T22:56:33.733Z,87.40
2018-08-18T22:59:02.786Z,85.55
2018-08-18T23:04:07.633Z,87.62
2018-08-18T23:11:49.337Z,87.37
2018-08-18T23:14:18.398Z,89.28
2018-08-18T23:16:47.449Z,89.57
2018-08-18T23:19:16.521Z,89.62
2018-08-18T23:21:45.605Z,88.89
2018-08-18T23:24:14.758Z,88.32
2018-08-18T23:29:20.693Z,85.89
2018-08-18T23:34:26.032Z,85.99
2018-08-18T23:36:54.991Z,88.94
2018-08-18T23:41:59.846Z,89.89
2018-08-18T23:47:04.734Z,89.43
2018-08-18T23:49:33.786Z,87.25
2018-08-18T23:52:03.789Z,88.75
2018-08-18T23:57:08.593Z,91.62
2018-08-18T23:59:37.641Z,90.20
